Time;durP1;ratioP1;P1;durP2;ratioP2;P2;SDS_P1;SDS_P2;PMS_P1;PMS_P2;Temp;Humidity;BMP_temperature;BMP_pressure;BME280_temperature;BME280_humidity;BME280_pressure;Samples;Min_cycle;Max_cycle;Signal;HPM_P1;HPM_P2
2021/06/15 05:10:59;;;;;;;13.23;6.03;;;;;;;18.72;75.00;100221.17;125200;1102;104248;-78
2021/06/15 05:13:30;;;;;;;17.70;6.40;;;;;;;18.79;75.57;100220.25;125037;1102;104351;-78
2021/06/15 05:16:02;;;;;;;9.90;5.73;;;;;;;18.88;75.59;100212.29;125008;1102;104220;-77
2021/06/15 05:18:34;;;;;;;15.43;6.00;;;;;;;19.00;75.48;100214.91;125033;1102;104210;-78
2021/06/15 05:21:10;;;;;;;16.03;5.90;;;;;;;19.12;74.93;100206.02;125099;1102;104216;-78
2021/06/15 05:23:47;;;;;;;14.07;5.90;;;;;;;19.25;75.63;100203.30;125217;1102;104278;-77
2021/06/15 05:26:20;;;;;;;14.10;6.23;;;;;;;19.34;74.92;100200.60;125059;1102;104287;-77
2021/06/15 05:28:51;;;;;;;15.90;5.90;;;;;;;19.36;75.02;100196.14;125185;1102;104175;-76
2021/06/15 05:31:22;;;;;;;14.40;6.33;;;;;;;19.37;75.04;100196.14;125115;1102;119477;-78
2021/06/15 05:33:55;;;;;;;12.83;5.87;;;;;;;19.46;75.26;100197.88;125178;1102;104181;-77
2021/06/15 05:36:25;;;;;;;14.47;6.42;;;;;;;19.51;75.39;100198.73;125169;1102;104215;-77
2021/06/15 05:38:56;;;;;;;16.63;6.87;;;;;;;19.58;74.81;100202.23;125206;1102;104255;-77
2021/06/15 05:41:27;;;;;;;15.67;5.70;;;;;;;19.61;74.79;100196.88;124996;1102;104264;-76
2021/06/15 05:43:57;;;;;;;14.33;5.67;;;;;;;19.62;75.23;100209.31;125172;1102;104150;-75
2021/06/15 05:46:28;;;;;;;14.73;5.73;;;;;;;19.62;74.61;100208.41;125068;1102;104393;-76
2021/06/15 05:48:59;;;;;;;15.10;5.77;;;;;;;19.63;74.47;100197.75;124965;1102;104220;-76
2021/06/15 05:51:30;;;;;;;14.60;5.87;;;;;;;19.68;74.26;100195.97;125066;1102;104621;-78
2021/06/15 05:54:02;;;;;;;13.43;5.40;;;;;;;19.73;74.00;100195.94;124944;1105;104294;-77
2021/06/15 05:56:34;;;;;;;11.80;5.90;;;;;;;19.78;74.24;100188.83;124959;1102;104165;-78
2021/06/15 05:59:08;;;;;;;15.80;5.60;;;;;;;19.84;74.45;100190.57;124906;1102;104216;-78
2021/06/15 06:01:39;;;;;;;;;;;;;;;19.87;74.73;100191.42;125027;1102;104197;-78
2021/06/15 06:04:16;;;;;;;10.25;5.55;;;;;;;19.90;74.37;100190.53;125118;1102;104174;-77
2021/06/15 06:09:43;;;;;;;14.38;6.22;;;;;;;20.05;73.70;100184.17;124921;1102;104277;-77
2021/06/15 06:12:14;;;;;;;14.70;5.63;;;;;;;20.13;74.30;100184.98;124973;1102;107757;-77
2021/06/15 06:14:44;;;;;;;14.23;5.60;;;;;;;20.23;73.68;100186.69;125072;1102;104331;-77
2021/06/15 06:17:15;;;;;;;14.93;5.90;;;;;;;20.34;74.31;100181.27;125016;1102;104166;-77
2021/06/15 06:19:48;;;;;;;14.50;6.10;;;;;;;20.39;73.71;100189.21;125074;1102;104277;-77
2021/06/15 06:22:19;;;;;;;17.03;5.93;;;;;;;20.41;74.02;100188.31;125095;1102;104226;-79
2021/06/15 06:24:51;;;;;;;12.27;5.63;;;;;;;20.42;74.25;100190.05;125119;1102;104159;-77
2021/06/15 06:27:25;;;;;;;14.27;6.03;;;;;;;20.47;73.98;100188.25;124959;1102;104306;-77
2021/06/15 06:29:58;;;;;;;14.63;5.90;;;;;;;20.54;73.94;100194.39;125169;1102;104200;-77
2021/06/15 06:32:33;;;;;;;15.43;6.00;;;;;;;20.58;73.01;100188.11;124923;1102;104142;-78
2021/06/15 06:35:06;;;;;;;10.13;5.55;;;;;;;20.64;73.18;100187.17;125153;1102;104142;-76
2021/06/15 06:37:40;;;;;;;13.10;5.57;;;;;;;20.73;73.38;100187.11;125134;1102;104368;-78
2021/06/15 06:40:14;;;;;;;12.47;5.90;;;;;;;20.86;73.47;100184.31;125066;1102;104178;-79
2021/06/15 06:42:48;;;;;;;12.77;6.10;;;;;;;21.02;72.90;100185.91;125115;1102;104242;-79
2021/06/15 06:45:22;;;;;;;12.85;5.72;;;;;;;21.17;73.34;100191.02;125010;1102;104245;-77
2021/06/15 06:47:57;;;;;;;12.07;5.90;;;;;;;21.31;73.03;100187.30;125428;1099;104495;-78
2021/06/15 06:50:31;;;;;;;13.50;5.90;;;;;;;21.48;72.72;100179.94;126206;1099;104156;-77
2021/06/15 06:53:04;;;;;;;14.73;6.07;;;;;;;21.65;72.36;100189.53;126195;1099;104382;-77
2021/06/15 06:55:37;;;;;;;14.87;6.00;;;;;;;21.78;72.62;100191.09;126069;1099;104143;-77
2021/06/15 06:58:10;;;;;;;;;;;;;;;21.87;70.89;100185.61;126069;1098;104348;-76
2021/06/15 07:00:41;;;;;;;13.57;6.17;;;;;;;21.99;71.86;100189.02;126111;1099;104130;-77
2021/06/15 07:03:13;;;;;;;14.70;6.03;;;;;;;22.13;71.75;100186.98;125817;1099;104143;-77
2021/06/15 07:05:50;;;;;;;13.28;5.78;;;;;;;22.29;71.54;100190.27;125995;1099;104306;-77
2021/06/15 07:08:28;;;;;;;10.33;5.63;;;;;;;22.46;71.39;100195.35;125867;1099;104195;-76
2021/06/15 07:11:04;;;;;;;15.10;5.67;;;;;;;22.62;71.39;100195.95;125247;1100;104242;-77
2021/06/15 07:13:53;;;;;;;11.70;5.43;;;;;;;22.80;71.32;100195.59;125848;1099;104318;-80
2021/06/15 07:16:35;;;;;;;11.93;5.37;;;;;;;23.02;70.61;100205.00;125170;1102;104181;-76
2021/06/15 07:19:07;;;;;;;14.17;5.57;;;;;;;23.16;69.91;100202.95;125265;1102;104166;-76
2021/06/15 07:21:43;;;;;;;12.80;5.60;;;;;;;23.21;69.83;100189.47;125233;1102;104242;-77
2021/06/15 07:24:15;;;;;;;10.77;5.13;;;;;;;23.21;69.68;100193.02;125340;1099;104450;-76
2021/06/15 07:26:48;;;;;;;11.88;5.65;;;;;;;23.26;69.90;100185.76;125221;1099;104185;-76
2021/06/15 07:29:21;;;;;;;9.05;5.00;;;;;;;23.35;69.15;100186.50;125274;1102;104172;-76
2021/06/15 07:31:54;;;;;;;11.07;5.37;;;;;;;23.40;69.48;100182.78;125252;1099;104181;-77
2021/06/15 07:34:29;;;;;;;12.07;5.50;;;;;;;23.55;69.19;100180.70;125250;1102;104207;-77
2021/06/15 07:37:08;;;;;;;10.03;4.93;;;;;;;23.69;69.15;100181.25;125289;1102;105192;-76
2021/06/15 07:39:40;;;;;;;12.83;5.47;;;;;;;23.84;69.09;100175.56;125251;1102;104299;-76
2021/06/15 07:42:29;;;;;;;10.10;5.23;;;;;;;24.01;68.92;100174.25;125831;1099;104198;-76
2021/06/15 07:45:03;;;;;;;8.65;5.00;;;;;;;24.02;68.18;100176.02;126235;1099;104596;-76
2021/06/15 07:47:40;;;;;;;13.80;5.13;;;;;;;23.99;68.34;100168.06;126272;1099;104303;-77
2021/06/15 07:50:13;;;;;;;10.00;4.77;;;;;;;23.99;67.89;100165.38;126262;1099;104252;-76
2021/06/15 07:52:46;;;;;;;12.37;4.75;;;;;;;24.01;67.77;100174.25;126290;1099;104585;-76
2021/06/15 07:55:19;;;;;;;12.00;5.05;;;;;;;24.10;67.89;100167.79;126234;1099;104160;-75
2021/06/15 07:57:50;;;;;;;10.53;5.00;;;;;;;24.29;68.43;100170.87;126251;1099;104140;-75
2021/06/15 08:00:22;;;;;;;8.33;4.53;;;;;;;24.52;67.54;100167.58;126213;1099;104312;-76
2021/06/15 08:02:57;;;;;;;10.00;5.17;;;;;;;24.66;67.43;100176.15;126159;1099;104214;-75
2021/06/15 08:05:30;;;;;;;9.87;5.17;;;;;;;24.73;66.37;100169.70;126260;1099;104217;-77
2021/06/15 08:08:06;;;;;;;11.07;4.97;;;;;;;24.80;66.55;100159.67;126324;1099;104210;-77
2021/06/15 08:10:42;;;;;;;10.13;4.50;;;;;;;24.96;66.57;100167.28;126225;1099;104163;-76
2021/06/15 08:13:16;;;;;;;10.47;4.23;;;;;;;25.06;65.96;100164.28;125143;1099;104326;-77
2021/06/15 08:15:50;;;;;;;12.98;4.83;;;;;;;25.14;65.89;100168.56;125297;1099;104306;-76
2021/06/15 08:18:21;;;;;;;8.27;4.60;;;;;;;25.17;65.93;100158.59;125255;1102;104376;-76
2021/06/15 08:20:55;;;;;;;12.03;4.80;;;;;;;25.16;66.07;100162.20;125171;1102;104141;-76
2021/06/15 08:23:30;;;;;;;11.30;4.87;;;;;;;25.31;65.71;100168.95;125172;1102;104328;-77
2021/06/15 08:26:02;;;;;;;14.07;5.30;;;;;;;25.43;64.95;100155.15;125246;1102;104256;-76
2021/06/15 08:28:35;;;;;;;8.70;4.70;;;;;;;25.48;64.23;100153.19;125231;1102;104271;-74
2021/06/15 08:31:07;;;;;;;9.78;4.90;;;;;;;25.60;64.75;100146.56;125241;1102;104351;-76
2021/06/15 08:33:45;;;;;;;11.73;5.20;;;;;;;25.65;64.52;100138.36;125183;1102;104179;-75
2021/06/15 08:36:19;;;;;;;11.07;5.20;;;;;;;25.64;63.84;100150.02;125211;1102;104339;-75
2021/06/15 08:38:49;;;;;;;;;;;;;;;25.63;63.21;100142.88;125263;1100;104181;-75
2021/06/15 08:41:25;;;;;;;8.33;4.70;;;;;;;25.73;63.53;100140.80;125208;1099;104226;-75
2021/06/15 08:43:56;;;;;;;11.43;5.37;;;;;;;25.79;63.41;100133.39;125130;1099;104149;-75
2021/06/15 08:46:29;;;;;;;10.33;4.90;;;;;;;25.85;63.25;100129.61;125252;1099;104313;-75
2021/06/15 08:49:03;;;;;;;8.40;4.97;;;;;;;25.94;63.43;100129.30;126243;1099;104217;-77
2021/06/15 08:51:44;;;;;;;8.20;4.63;;;;;;;26.03;63.17;100128.16;126183;1099;104161;-78
2021/06/15 08:54:22;;;;;;;8.70;5.00;;;;;;;26.01;62.95;100120.14;126159;1099;104143;-77
2021/06/15 08:56:56;;;;;;;6.20;3.97;;;;;;;26.16;62.20;100124.13;126202;1099;104134;-76
2021/06/15 08:59:29;;;;;;;8.57;4.20;;;;;;;26.24;62.20;100114.89;126171;1099;104409;-77
2021/06/15 09:02:09;;;;;;;5.70;4.00;;;;;;;26.30;61.63;100120.05;126290;1099;104153;-76
2021/06/15 09:04:41;;;;;;;10.63;4.47;;;;;;;26.37;61.58;100121.60;126163;1099;104172;-76
2021/06/15 09:07:12;;;;;;;7.67;4.07;;;;;;;26.37;60.95;100110.84;126194;1098;104137;-76
2021/06/15 09:09:46;;;;;;;8.57;4.67;;;;;;;26.36;61.24;100104.56;126229;1099;104147;-76
2021/06/15 09:12:19;;;;;;;11.45;4.90;;;;;;;26.51;60.78;100097.77;126155;1099;104185;-76
2021/06/15 09:14:56;;;;;;;10.80;4.57;;;;;;;26.51;60.85;100097.77;126230;1099;104153;-77
2021/06/15 09:17:37;;;;;;;9.90;4.40;;;;;;;26.45;60.08;100100.67;126260;1099;104136;-77
2021/06/15 09:20:19;;;;;;;8.17;4.57;;;;;;;26.53;60.55;100095.88;126174;1099;104201;-75
2021/06/15 09:23:03;;;;;;;7.80;4.57;;;;;;;26.72;60.26;100093.44;126227;1099;104140;-77
2021/06/15 09:25:35;;;;;;;10.00;4.78;;;;;;;26.93;60.27;100084.58;126132;1099;104181;-76
2021/06/15 09:28:22;;;;;;;8.77;4.40;;;;;;;27.09;59.75;100083.05;125326;1099;104211;-78
2021/06/15 09:31:02;;;;;;;10.30;4.40;;;;;;;27.15;59.11;100072.05;126306;1098;104130;-75
2021/06/15 09:33:46;;;;;;;9.43;4.30;;;;;;;27.33;59.09;100064.19;126270;1099;104210;-76
2021/06/15 09:36:32;;;;;;;8.33;4.07;;;;;;;27.33;57.83;100053.41;126361;1099;119788;-76
2021/06/15 09:39:04;;;;;;;11.07;4.37;;;;;;;27.20;59.11;100053.01;126198;1099;104133;-76
2021/06/15 09:41:42;;;;;;;10.00;4.50;;;;;;;27.15;58.57;100039.73;126176;1099;104124;-77
2021/06/15 09:44:20;;;;;;;9.67;4.40;;;;;;;27.14;58.05;100045.17;126184;1099;104143;-76
2021/06/15 09:46:53;;;;;;;8.40;4.27;;;;;;;27.12;57.71;100044.37;126136;1099;104235;-76
2021/06/15 09:49:32;;;;;;;14.90;4.47;;;;;;;27.02;57.17;100035.76;126159;1099;104197;-76
2021/06/15 09:52:17;;;;;;;8.77;4.20;;;;;;;26.94;57.02;100029.81;125337;1099;104412;-77
2021/06/15 09:54:53;;;;;;;9.50;4.30;;;;;;;26.85;56.98;100036.45;125967;1099;104133;-77
2021/06/15 09:57:30;;;;;;;10.07;4.60;;;;;;;26.64;56.57;100040.80;126016;1099;104232;-76
2021/06/15 10:00:09;;;;;;;11.80;4.90;;;;;;;26.42;56.62;100055.06;126112;1099;104315;-76
2021/06/15 10:02:55;;;;;;;12.73;5.03;;;;;;;25.69;57.96;100064.76;126102;1099;104194;-76
2021/06/15 10:05:31;;;;;;;17.83;5.93;;;;;;;24.87;59.17;100098.64;126074;1099;104143;-76
2021/06/15 10:08:07;;;;;;;10.00;4.73;;;;;;;23.85;63.41;100125.53;126036;1099;104156;-75
2021/06/15 10:10:42;;;;;;;6.83;3.67;;;;;;;21.95;61.24;100083.11;126232;1099;104694;-81
2021/06/15 10:13:14;;;;;;;10.07;3.87;;;;;;;20.76;61.82;100071.56;126288;1099;104178;-76
2021/06/15 10:15:51;;;;;;;9.47;4.20;;;;;;;20.19;63.19;100073.05;126169;1098;104159;-77
2021/06/15 10:18:22;;;;;;;6.30;3.90;;;;;;;19.92;62.53;100085.75;126265;1099;104150;-77
2021/06/15 10:20:55;;;;;;;8.77;4.70;;;;;;;19.70;63.85;100071.72;126222;1099;104181;-76
2021/06/15 10:23:28;;;;;;;9.13;4.70;;;;;;;19.57;65.00;100072.70;126162;1099;104137;-75
2021/06/15 10:26:06;;;;;;;13.70;5.25;;;;;;;19.53;65.01;100049.70;126081;1099;104207;-76
2021/06/15 10:28:39;;;;;;;14.23;6.30;;;;;;;19.54;64.84;100041.70;126075;1099;104131;-76
2021/06/15 10:31:11;;;;;;;13.55;6.65;;;;;;;19.57;66.22;100057.64;126063;1099;104210;-76
2021/06/15 10:33:50;;;;;;;13.10;6.67;;;;;;;19.71;66.24;100061.95;126106;1099;104143;-77
2021/06/15 10:36:43;;;;;;;19.90;7.97;;;;;;;19.87;66.88;100062.75;126153;1098;104165;-77
2021/06/15 10:39:20;;;;;;;15.30;7.50;;;;;;;20.06;67.25;100047.47;126037;1098;104165;-78
2021/06/15 10:42:14;;;;;;;12.67;7.13;;;;;;;20.23;68.05;100026.84;126172;1099;104137;-77
2021/06/15 10:45:07;;;;;;;17.75;7.90;;;;;;;20.40;68.04;100018.66;126083;1099;104153;-78
2021/06/15 10:47:41;;;;;;;15.13;7.73;;;;;;;20.52;67.93;99993.65;126220;1099;104204;-77
2021/06/15 10:50:13;;;;;;;16.97;8.17;;;;;;;20.74;67.56;99993.36;126310;1098;104136;-78
2021/06/15 10:53:11;;;;;;;15.40;7.00;;;;;;;20.93;67.62;99983.33;126324;1098;104156;-77
2021/06/15 10:55:51;;;;;;;16.70;7.60;;;;;;;21.16;68.28;99982.95;126117;1099;104264;-77
2021/06/15 10:58:55;;;;;;;17.87;8.57;;;;;;;21.24;68.72;99973.05;126222;1099;107050;-78
2021/06/15 11:01:36;;;;;;;16.70;7.20;;;;;;;21.23;68.76;99978.42;126281;1099;104206;-76
2021/06/15 11:04:09;;;;;;;13.83;7.23;;;;;;;21.23;68.01;99965.95;126147;1099;104128;-78
2021/06/15 11:06:54;;;;;;;18.03;8.90;;;;;;;21.42;68.46;99958.50;126271;1099;104239;-79
2021/06/15 11:09:38;;;;;;;14.45;7.75;;;;;;;21.67;69.00;99956.30;126224;1099;104313;-78
2021/06/15 11:12:24;;;;;;;19.80;8.20;;;;;;;21.92;68.97;99949.63;126239;1099;104229;-79
2021/06/15 11:15:15;;;;;;;21.47;8.63;;;;;;;22.14;69.70;99929.55;126314;1099;104283;-78
2021/06/15 11:17:53;;;;;;;16.97;7.40;;;;;;;22.26;69.27;99939.12;126141;1099;104133;-78
2021/06/15 11:20:41;;;;;;;15.70;7.70;;;;;;;22.30;69.28;99923.89;126209;1099;104204;-78
2021/06/15 11:23:19;;;;;;;14.97;6.57;;;;;;;22.36;69.96;99914.00;126302;1099;104236;-79
2021/06/15 11:25:59;;;;;;;15.73;6.43;;;;;;;22.51;69.85;99906.54;126341;1098;104146;-79
2021/06/15 11:28:50;;;;;;;13.90;7.13;;;;;;;22.54;70.27;99907.34;126151;1099;104225;-78
2021/06/15 11:31:34;;;;;;;19.43;6.83;;;;;;;22.52;70.16;99894.94;126113;1099;104566;-77
2021/06/15 11:34:14;;;;;;;14.17;7.07;;;;;;;22.49;70.08;99893.20;126235;1099;104643;-81
2021/06/15 11:36:58;;;;;;;16.03;7.70;;;;;;;22.56;70.11;99891.27;126222;1099;104278;-80
2021/06/15 11:39:41;;;;;;;14.13;6.70;;;;;;;22.69;70.65;99890.07;126260;1099;104437;-79
2021/06/15 11:42:28;;;;;;;16.70;8.30;;;;;;;22.71;70.81;99896.25;126264;1099;104194;-79
2021/06/15 11:45:12;;;;;;;16.93;8.03;;;;;;;22.81;71.11;99902.25;126237;1099;104140;-79
2021/06/15 11:47:52;;;;;;;22.73;7.43;;;;;;;22.94;70.90;99906.39;126233;1099;104176;-78
2021/06/15 11:50:29;;;;;;;17.93;8.20;;;;;;;23.07;71.23;99906.09;126257;1099;104192;-77
2021/06/15 11:53:04;;;;;;;16.63;8.27;;;;;;;23.19;71.46;99896.88;126157;1099;104364;-78
2021/06/15 11:55:39;;;;;;;16.37;8.57;;;;;;;23.29;71.61;99891.25;126137;1099;104689;-78
2021/06/15 11:58:16;;;;;;;15.90;7.60;;;;;;;23.54;71.77;99889.73;126268;1099;104155;-78
2021/06/15 12:00:50;;;;;;;17.83;8.33;;;;;;;23.70;71.60;99869.65;126317;1099;104191;-79
2021/06/15 12:03:23;;;;;;;16.63;7.87;;;;;;;23.86;71.66;99873.66;125339;1102;104248;-79
2021/06/15 12:05:59;;;;;;;18.90;7.90;;;;;;;24.10;71.85;99854.22;126206;1099;104187;-78
2021/06/15 12:08:35;;;;;;;20.30;7.43;;;;;;;24.21;71.49;99844.04;125608;1099;104239;-79
2021/06/15 12:11:10;;;;;;;15.30;7.43;;;;;;;24.25;71.69;99836.77;125201;1102;104620;-79
2021/06/15 12:13:50;;;;;;;16.87;7.63;;;;;;;24.31;71.72;99818.71;125294;1099;104150;-79
2021/06/15 12:16:27;;;;;;;13.67;7.47;;;;;;;24.34;71.33;99820.40;125262;1099;104236;-79
2021/06/15 12:19:01;;;;;;;15.00;7.65;;;;;;;24.36;71.88;99808.71;125719;1098;105189;-78
2021/06/15 12:21:36;;;;;;;16.63;7.93;;;;;;;24.38;71.95;99804.16;125450;1099;104313;-79
2021/06/15 12:24:12;;;;;;;15.00;7.80;;;;;;;24.39;71.84;99800.56;126140;1099;104363;-78
2021/06/15 12:26:46;;;;;;;15.43;6.93;;;;;;;24.40;72.03;99794.29;125407;1099;104297;-77
2021/06/15 12:29:22;;;;;;;12.77;6.80;;;;;;;24.41;71.98;99809.42;125175;1099;104206;-78
2021/06/15 12:31:58;;;;;;;12.03;5.95;;;;;;;24.40;70.86;99813.05;125295;1099;104385;-78
2021/06/15 12:34:32;;;;;;;8.60;5.27;;;;;;;24.28;70.92;99816.13;125475;1099;104144;-78
2021/06/15 12:37:07;;;;;;;8.07;5.47;;;;;;;24.17;70.39;99823.64;125397;1099;104147;-78
2021/06/15 12:39:42;;;;;;;14.30;5.00;;;;;;;24.04;69.95;99815.08;126211;1099;104600;-78
2021/06/15 12:42:18;;;;;;;10.95;5.20;;;;;;;23.96;70.37;99817.98;126261;1099;104298;-78
2021/06/15 12:45:00;;;;;;;10.47;5.27;;;;;;;23.90;70.07;99807.45;126251;1098;104197;-79
2021/06/15 12:47:44;;;;;;;12.73;7.00;;;;;;;23.93;70.34;99802.00;126320;1098;104156;-79
2021/06/15 12:50:28;;;;;;;8.03;5.40;;;;;;;23.98;70.50;99800.09;126247;1099;104137;-80
2021/06/15 12:53:11;;;;;;;7.70;5.03;;;;;;;24.10;70.05;99801.48;126262;1099;104239;-77
2021/06/15 12:55:49;;;;;;;6.50;5.10;;;;;;;24.17;70.10;99792.34;126249;1099;104197;-77
2021/06/15 12:58:35;;;;;;;8.47;5.40;;;;;;;24.31;69.87;99791.91;126168;1099;104169;-78
2021/06/15 13:01:17;;;;;;;9.23;5.33;;;;;;;24.43;69.55;99777.20;126245;1097;104149;-76
2021/06/15 13:03:53;;;;;;;12.47;5.00;;;;;;;24.59;69.54;99774.95;126349;1099;104386;-78
2021/06/15 13:06:28;;;;;;;8.87;4.90;;;;;;;24.73;68.71;99783.39;126335;1099;104143;-76
2021/06/15 13:09:14;;;;;;;13.67;5.63;;;;;;;24.85;69.46;99792.80;126063;1099;104277;-79
2021/06/15 13:12:01;;;;;;;9.53;5.45;;;;;;;24.94;68.66;99789.80;126297;1099;104325;-78
2021/06/15 13:14:36;;;;;;;8.23;5.27;;;;;;;25.07;65.37;99795.64;126327;1099;104133;-77
2021/06/15 13:17:11;;;;;;;9.03;5.40;;;;;;;25.41;66.29;99796.25;126183;1099;104216;-77
2021/06/15 13:19:47;;;;;;;10.03;6.17;;;;;;;25.62;66.69;99789.22;126201;1099;104172;-77
2021/06/15 13:22:32;;;;;;;12.73;5.63;;;;;;;25.50;65.56;99793.23;125778;1099;104351;-78
2021/06/15 13:25:08;;;;;;;11.63;5.90;;;;;;;25.20;65.86;99784.47;126280;1099;105287;-77
2021/06/15 13:27:45;;;;;;;14.43;5.60;;;;;;;25.05;65.91;99796.61;126318;1099;104181;-78
2021/06/15 13:30:21;;;;;;;12.97;5.60;;;;;;;25.02;66.53;99775.25;126284;1099;104149;-78
2021/06/15 13:33:06;;;;;;;12.13;5.47;;;;;;;24.98;65.68;99784.33;126359;1099;104142;-78
2021/06/15 13:35:44;;;;;;;9.87;5.10;;;;;;;24.94;64.85;99770.16;125193;1099;104255;-77
2021/06/15 13:38:20;;;;;;;16.03;5.83;;;;;;;24.92;65.78;99770.20;125235;1102;104204;-77
2021/06/15 13:40:53;;;;;;;14.07;6.30;;;;;;;24.92;65.60;99772.03;125171;1099;104206;-78
2021/06/15 13:43:28;;;;;;;11.23;5.67;;;;;;;25.06;65.61;99775.09;125289;1099;104322;-78
2021/06/15 13:46:07;;;;;;;11.20;5.43;;;;;;;25.23;65.46;99765.56;125254;1099;104241;-78
2021/06/15 13:48:39;;;;;;;9.10;5.50;;;;;;;25.29;64.85;99754.60;125233;1099;104144;-76
2021/06/15 13:51:14;;;;;;;10.03;5.37;;;;;;;25.35;65.11;99759.75;125150;1103;104383;-78
2021/06/15 13:53:47;;;;;;;10.27;5.17;;;;;;;25.44;64.77;99762.09;125309;1099;104638;-78
2021/06/15 13:56:18;;;;;;;11.47;5.43;;;;;;;25.53;64.46;99776.12;125265;1102;104284;-77
2021/06/15 13:58:49;;;;;;;12.00;5.60;;;;;;;25.63;64.44;99774.83;125262;1099;104146;-79
2021/06/15 14:01:20;;;;;;;9.00;5.27;;;;;;;25.61;63.82;99758.77;125183;1099;104245;-78
2021/06/15 14:03:53;;;;;;;10.30;5.20;;;;;;;25.45;63.05;99765.67;125157;1099;104144;-78
2021/06/15 14:06:25;;;;;;;10.70;4.50;;;;;;;25.10;62.59;99765.11;125318;1099;104249;-78
2021/06/15 14:09:00;;;;;;;15.17;5.27;;;;;;;24.74;63.08;99771.75;126131;1098;104675;-77
2021/06/15 14:11:32;;;;;;;;;;;;;;;24.45;61.88;99756.59;126199;1099;104194;-77
2021/06/15 14:14:07;;;;;;;7.93;4.60;;;;;;;24.23;62.53;99745.68;126281;1099;104241;-77
2021/06/15 14:16:40;;;;;;;10.90;4.70;;;;;;;24.04;62.26;99748.98;126252;1099;104203;-79
2021/06/15 14:19:18;;;;;;;9.60;4.17;;;;;;;23.84;62.15;99756.74;126247;1099;104179;-81
2021/06/15 14:22:04;;;;;;;8.00;4.70;;;;;;;23.63;62.13;99767.16;126186;1099;104203;-78
2021/06/15 14:24:57;;;;;;;8.47;4.70;;;;;;;23.43;62.50;99765.06;126258;1099;104188;-77
2021/06/15 14:27:31;;;;;;;9.83;5.27;;;;;;;23.29;62.67;99754.75;126286;1099;104300;-77
2021/06/15 14:30:08;;;;;;;14.37;5.77;;;;;;;23.14;63.14;99747.19;126275;1099;104377;-78
2021/06/15 14:32:43;;;;;;;12.13;6.43;;;;;;;23.02;62.98;99753.70;126127;1099;104248;-77
2021/06/15 14:35:15;;;;;;;16.47;7.10;;;;;;;22.92;63.66;99737.03;126145;1099;104139;-77
2021/06/15 14:37:52;;;;;;;13.87;5.93;;;;;;;22.84;63.80;99747.05;125928;1099;104165;-78
2021/06/15 14:40:23;;;;;;;13.27;6.50;;;;;;;22.77;64.01;99748.14;126025;1099;104175;-78
2021/06/15 14:42:54;;;;;;;12.73;6.50;;;;;;;22.68;64.67;99749.25;126055;1099;107055;-78
2021/06/15 14:45:25;;;;;;;11.70;6.40;;;;;;;22.64;65.11;99752.05;126077;1099;104209;-78
2021/06/15 14:47:55;;;;;;;13.50;6.70;;;;;;;22.63;65.27;99759.20;126105;1099;104248;-77
2021/06/15 14:50:26;;;;;;;13.87;6.53;;;;;;;22.64;65.64;99752.05;126166;1099;104149;-79
2021/06/15 14:52:57;;;;;;;13.13;6.63;;;;;;;22.63;65.76;99742.29;126007;1099;119057;-77
2021/06/15 14:55:28;;;;;;;12.80;5.80;;;;;;;22.57;65.60;99725.47;126202;1099;104326;-77
2021/06/15 14:57:59;;;;;;;13.63;6.57;;;;;;;22.51;66.13;99720.28;126228;1099;104328;-76
2021/06/15 15:00:30;;;;;;;13.67;6.60;;;;;;;22.47;65.87;99733.76;126282;1099;104243;-77
2021/06/15 15:03:01;;;;;;;20.30;7.30;;;;;;;22.35;66.85;99732.30;126007;1099;104238;-76
2021/06/15 15:05:32;;;;;;;14.27;6.93;;;;;;;22.14;67.10;99722.96;126256;1099;104240;-77
2021/06/15 15:08:04;;;;;;;12.40;6.40;;;;;;;21.97;67.73;99718.92;126167;1099;104316;-78
2021/06/15 15:10:35;;;;;;;13.47;7.47;;;;;;;21.80;67.71;99727.32;126118;1099;104143;-76
2021/06/15 15:13:09;;;;;;;22.47;11.17;;;;;;;21.66;68.11;99743.64;126223;1099;104200;-78
2021/06/15 15:15:40;;;;;;;22.33;8.30;;;;;;;21.52;67.53;99791.12;126310;1099;104201;-78
2021/06/15 15:18:11;;;;;;;23.53;8.87;;;;;;;21.36;68.94;99817.17;126094;1099;104171;-79
2021/06/15 15:20:41;;;;;;;19.77;9.47;;;;;;;21.07;69.19;99785.75;126138;1099;104446;-77
2021/06/15 15:23:13;;;;;;;26.63;13.50;;;;;;;20.82;68.28;99771.06;126125;1099;104140;-77
2021/06/15 15:25:44;;;;;;;19.37;11.00;;;;;;;20.67;69.31;99762.46;126194;1099;104207;-76
2021/06/15 15:28:16;;;;;;;19.85;11.30;;;;;;;20.55;69.05;99736.86;126117;1099;104287;-77
2021/06/15 15:30:50;;;;;;;20.07;12.80;;;;;;;20.51;68.93;99737.84;126180;1099;103613;-77
2021/06/15 15:33:21;;;;;;;21.37;13.23;;;;;;;20.51;70.47;99735.17;126239;1099;105374;-78
2021/06/15 15:35:52;;;;;;;19.63;12.53;;;;;;;20.48;70.48;99720.11;126116;1099;104933;-76
2021/06/15 15:38:23;;;;;;;21.90;14.00;;;;;;;20.50;70.48;99717.41;126241;1099;104171;-78
2021/06/15 15:40:54;;;;;;;22.50;13.80;;;;;;;20.52;70.85;99811.53;126295;1099;104133;-78
2021/06/15 15:43:24;;;;;;;21.60;13.40;;;;;;;20.50;70.89;99794.69;126266;1099;104290;-79
2021/06/15 15:45:57;;;;;;;22.23;14.27;;;;;;;20.44;71.26;99809.88;126278;1099;104340;-78
2021/06/15 15:48:33;;;;;;;21.40;13.13;;;;;;;20.37;71.98;99847.30;126225;1099;104650;-77
2021/06/15 15:51:06;;;;;;;23.13;12.53;;;;;;;20.26;71.35;99861.65;126252;1099;104166;-78
2021/06/15 15:53:38;;;;;;;13.45;9.38;;;;;;;20.13;71.48;99811.23;126337;1099;104251;-78
2021/06/15 15:56:10;;;;;;;20.90;10.73;;;;;;;20.01;71.74;99809.64;126199;1099;104632;-78
2021/06/15 15:58:42;;;;;;;18.77;8.78;;;;;;;19.74;70.84;99799.31;126310;1098;104130;-78
2021/06/15 16:01:13;;;;;;;11.67;7.33;;;;;;;19.48;71.89;99836.88;126276;1099;104178;-78
2021/06/15 16:03:45;;;;;;;13.00;8.20;;;;;;;19.25;71.43;99882.34;126088;1099;104171;-76
2021/06/15 16:06:16;;;;;;;15.97;9.00;;;;;;;19.03;71.49;99908.25;126260;1099;104299;-77
2021/06/15 16:08:46;;;;;;;15.50;8.17;;;;;;;18.81;72.15;99912.83;126242;1099;104303;-77
2021/06/15 16:11:17;;;;;;;16.23;8.93;;;;;;;18.64;72.12;99921.79;126188;1099;104130;-77
2021/06/15 16:13:48;;;;;;;17.27;8.77;;;;;;;18.46;72.33;99944.02;126182;1099;104638;-77
2021/06/15 16:16:19;;;;;;;16.70;9.40;;;;;;;18.33;73.14;99924.63;126233;1098;104185;-77
2021/06/15 16:18:50;;;;;;;16.87;9.30;;;;;;;18.23;72.65;99867.16;126111;1099;104267;-76
2021/06/15 16:21:20;;;;;;;17.77;9.73;;;;;;;18.17;72.66;99856.57;126165;1099;104303;-76
2021/06/15 16:23:51;;;;;;;19.73;10.40;;;;;;;18.13;72.80;99836.23;126074;1098;104319;-76
2021/06/15 16:26:23;;;;;;;16.80;9.77;;;;;;;18.10;73.18;99838.90;126171;1099;104163;-76
2021/06/15 16:28:54;;;;;;;18.60;11.40;;;;;;;18.05;73.01;99846.89;126142;1099;104182;-76
2021/06/15 16:31:24;;;;;;;17.00;10.70;;;;;;;18.02;73.09;99857.52;126217;1098;104609;-75
2021/06/15 16:33:55;;;;;;;21.00;12.50;;;;;;;17.97;73.01;99854.02;126132;1099;104249;-75
2021/06/15 16:36:26;;;;;;;19.17;12.00;;;;;;;17.93;73.46;99877.02;126282;1099;104152;-77
2021/06/15 16:38:57;;;;;;;20.30;12.67;;;;;;;17.94;73.51;99864.65;126316;1099;104133;-77
2021/06/15 16:41:29;;;;;;;21.67;13.73;;;;;;;17.98;73.90;99861.06;126352;1099;104130;-76
2021/06/15 16:43:59;;;;;;;21.33;13.77;;;;;;;18.04;73.77;99844.23;126302;1099;104131;-76
2021/06/15 16:46:30;;;;;;;23.60;13.57;;;;;;;18.03;73.93;99837.16;126317;1099;104152;-77
2021/06/15 16:49:01;;;;;;;20.40;13.83;;;;;;;18.05;74.10;99840.70;126216;1099;104335;-77
2021/06/15 16:51:32;;;;;;;22.47;14.17;;;;;;;18.08;73.83;99836.25;126298;1099;104182;-76
2021/06/15 16:54:05;;;;;;;24.57;15.63;;;;;;;18.12;74.81;99837.11;126272;1099;104198;-77
2021/06/15 16:56:38;;;;;;;23.18;15.30;;;;;;;18.16;74.32;99836.21;126313;1099;104166;-76